Time;durP1;ratioP1;P1;durP2;ratioP2;P2;SDS_P1;SDS_P2;PMS_P1;PMS_P2;Temp;Humidity;BMP_temperature;BMP_pressure;BME280_temperature;BME280_humidity;BME280_pressure;Samples;Min_cycle;Max_cycle;Signal;HPM_P1;HPM_P2
2022/07/14 00:02:22;;;;;;;3.95;0.95;;;;;;;;;;4942565;29;20467;-84
2022/07/14 00:04:48;;;;;;;2.13;0.90;;;;;;;;;;4941952;29;20051;-84
2022/07/14 00:07:13;;;;;;;2.58;0.80;;;;;;;;;;4941517;29;20035;-84
2022/07/14 00:09:39;;;;;;;0.95;0.80;;;;;;;;;;4925387;29;20031;-84
2022/07/14 00:12:05;;;;;;;3.78;0.95;;;;;;;;;;4951351;29;20091;-84
2022/07/14 00:14:30;;;;;;;1.40;0.90;;;;;;;;;;4943015;29;20465;-84
2022/07/14 00:16:56;;;;;;;1.73;1.33;;;;;;;;;;4941528;29;20032;-84
2022/07/14 00:19:21;;;;;;;0.80;0.80;;;;;;;;;;4956595;29;20550;-84
2022/07/14 00:21:47;;;;;;;1.08;0.80;;;;;;;;;;4941940;29;20382;-84
2022/07/14 00:24:13;;;;;;;1.77;0.80;;;;;;;;;;4941191;29;20035;-84
2022/07/14 00:26:42;;;;;;;1.25;0.80;;;;;;;;;;4941170;29;20038;-84
2022/07/14 00:29:08;;;;;;;1.55;1.00;;;;;;;;;;4941678;29;20035;-84
2022/07/14 00:31:34;;;;;;;1.67;0.90;;;;;;;;;;4942009;29;20090;-84
2022/07/14 00:34:00;;;;;;;1.33;1.00;;;;;;;;;;4940261;29;20179;-84
2022/07/14 00:36:29;;;;;;;3.65;1.27;;;;;;;;;;4924432;29;20801;-84
2022/07/14 00:38:55;;;;;;;1.75;0.90;;;;;;;;;;4956158;29;20435;-84
2022/07/14 00:41:21;;;;;;;1.48;0.90;;;;;;;;;;4941087;29;20035;-84
2022/07/14 00:43:46;;;;;;;3.35;1.10;;;;;;;;;;4940170;29;20036;-83
2022/07/14 00:46:12;;;;;;;1.30;0.93;;;;;;;;;;4939256;29;20117;-84
2022/07/14 00:48:38;;;;;;;1.30;1.00;;;;;;;;;;4955026;29;20465;-84
2022/07/14 00:51:03;;;;;;;1.60;1.23;;;;;;;;;;4939327;29;20441;-84
2022/07/14 00:53:29;;;;;;;1.10;1.00;;;;;;;;;;4954868;29;20103;-83
2022/07/14 00:55:54;;;;;;;1.98;1.00;;;;;;;;;;4938104;29;20020;-84
2022/07/14 00:58:20;;;;;;;2.15;1.05;;;;;;;;;;4954086;28;20493;-84
2022/07/14 01:00:46;;;;;;;1.23;0.85;;;;;;;;;;4939825;29;20047;-84
2022/07/14 01:03:12;;;;;;;1.10;0.98;;;;;;;;;;4939914;29;20031;-84
2022/07/14 01:05:38;;;;;;;2.53;1.00;;;;;;;;;;4939393;29;20063;-84
2022/07/14 01:08:04;;;;;;;1.45;1.00;;;;;;;;;;4940267;29;20094;-84
2022/07/14 01:10:30;;;;;;;2.30;0.90;;;;;;;;;;4940538;29;20524;-84
2022/07/14 01:13:00;;;;;;;1.10;0.90;;;;;;;;;;4938519;29;20023;-84
2022/07/14 01:15:26;;;;;;;2.08;0.95;;;;;;;;;;4939532;29;20028;-84
2022/07/14 01:17:52;;;;;;;1.77;1.10;;;;;;;;;;4954020;29;20118;-84
2022/07/14 01:20:18;;;;;;;2.78;0.98;;;;;;;;;;4939738;29;20059;-84
2022/07/14 01:22:48;;;;;;;1.95;1.00;;;;;;;;;;4940280;29;20107;-84
2022/07/14 01:25:19;;;;;;;1.92;1.10;;;;;;;;;;4938631;29;20066;-84
2022/07/14 01:27:44;;;;;;;1.20;1.00;;;;;;;;;;4938984;29;20083;-82
2022/07/14 01:30:10;;;;;;;0.95;0.90;;;;;;;;;;4937839;29;20118;-82
2022/07/14 01:32:37;;;;;;;1.45;1.10;;;;;;;;;;4953675;29;20507;-82
2022/07/14 01:35:04;;;;;;;2.50;0.90;;;;;;;;;;4937226;29;20035;-82
2022/07/14 01:37:30;;;;;;;1.15;1.00;;;;;;;;;;4938129;29;20074;-82
2022/07/14 01:39:55;;;;;;;1.52;1.00;;;;;;;;;;4936599;29;20401;-82
2022/07/14 01:42:21;;;;;;;1.27;0.90;;;;;;;;;;4953375;29;20116;-82
2022/07/14 01:44:47;;;;;;;1.05;0.90;;;;;;;;;;4937995;29;20073;-82
2022/07/14 01:47:13;;;;;;;3.10;0.90;;;;;;;;;;4952425;29;20035;-83
2022/07/14 01:49:39;;;;;;;2.42;0.90;;;;;;;;;;4952356;29;20145;-82
2022/07/14 01:52:07;;;;;;;1.92;1.10;;;;;;;;;;4937165;29;20032;-82
2022/07/14 01:54:34;;;;;;;1.10;1.00;;;;;;;;;;4937280;29;20036;-82
2022/07/14 01:57:00;;;;;;;1.88;1.00;;;;;;;;;;4952789;29;20047;-82
2022/07/14 01:59:26;;;;;;;2.28;1.15;;;;;;;;;;4952090;29;20130;-82
2022/07/14 02:01:53;;;;;;;2.35;0.98;;;;;;;;;;4937293;29;20043;-83
2022/07/14 02:04:20;;;;;;;1.52;0.88;;;;;;;;;;4937726;29;20040;-83
2022/07/14 02:06:49;;;;;;;1.20;1.10;;;;;;;;;;4920470;29;20408;-82
2022/07/14 02:12:21;;;;;;;1.65;1.00;;;;;;;;;;4956682;29;20039;-82
2022/07/14 02:14:46;;;;;;;1.25;1.02;;;;;;;;;;4956141;29;20034;-83
2022/07/14 02:17:12;;;;;;;1.00;0.90;;;;;;;;;;4956174;29;20122;-82
2022/07/14 02:19:37;;;;;;;1.13;0.90;;;;;;;;;;4956713;29;20063;-82
2022/07/14 02:22:04;;;;;;;1.63;1.00;;;;;;;;;;4940579;29;20040;-82
2022/07/14 02:24:29;;;;;;;5.63;1.17;;;;;;;;;;4939339;29;20046;-82
2022/07/14 02:26:55;;;;;;;1.63;1.05;;;;;;;;;;4956041;29;20118;-82
2022/07/14 02:29:21;;;;;;;2.47;1.00;;;;;;;;;;4941746;29;20019;-82
2022/07/14 02:31:48;;;;;;;1.60;1.00;;;;;;;;;;4941289;29;20050;-83
2022/07/14 02:34:15;;;;;;;1.67;1.10;;;;;;;;;;4939828;29;20027;-82
2022/07/14 02:36:41;;;;;;;1.67;1.00;;;;;;;;;;4956068;29;20047;-83
2022/07/14 02:39:08;;;;;;;1.73;1.00;;;;;;;;;;4956245;29;20035;-83
2022/07/14 02:41:33;;;;;;;1.23;1.00;;;;;;;;;;4939988;29;20050;-82
2022/07/14 02:43:59;;;;;;;3.03;1.10;;;;;;;;;;4955734;29;20484;-82
2022/07/14 02:46:24;;;;;;;2.92;1.00;;;;;;;;;;4956274;29;20055;-82
2022/07/14 02:48:51;;;;;;;1.60;1.10;;;;;;;;;;4956719;29;20035;-83
2022/07/14 02:51:17;;;;;;;2.08;0.90;;;;;;;;;;4956475;29;20390;-83
2022/07/14 02:53:44;;;;;;;2.40;0.90;;;;;;;;;;4955545;29;20051;-82
2022/07/14 02:56:09;;;;;;;3.03;1.10;;;;;;;;;;4955646;29;20421;-82
2022/07/14 02:58:37;;;;;;;1.70;1.00;;;;;;;;;;4939502;29;20036;-82
2022/07/14 03:01:07;;;;;;;1.35;1.05;;;;;;;;;;4941337;29;20047;-82
2022/07/14 03:03:35;;;;;;;2.70;0.95;;;;;;;;;;4956106;29;20095;-82
2022/07/14 03:06:16;;;;;;;1.02;0.93;;;;;;;;;;4923817;29;20031;-82
2022/07/14 03:08:44;;;;;;;1.50;1.00;;;;;;;;;;4939439;29;20042;-82
2022/07/14 03:11:11;;;;;;;2.00;0.98;;;;;;;;;;4955793;29;20413;-82
2022/07/14 03:13:37;;;;;;;1.65;1.13;;;;;;;;;;4940975;29;20027;-82
2022/07/14 03:16:08;;;;;;;4.10;1.00;;;;;;;;;;4939168;29;20039;-82
2022/07/14 03:18:39;;;;;;;5.88;1.10;;;;;;;;;;4938916;29;20035;-82
2022/07/14 03:21:10;;;;;;;2.15;0.95;;;;;;;;;;4938330;29;20035;-83
2022/07/14 03:23:38;;;;;;;2.05;1.05;;;;;;;;;;4939644;29;20039;-83
2022/07/14 03:26:06;;;;;;;4.65;1.13;;;;;;;;;;4955264;29;20058;-82
2022/07/14 03:28:32;;;;;;;1.42;1.10;;;;;;;;;;4939295;29;20091;-82
2022/07/14 03:30:59;;;;;;;2.35;1.00;;;;;;;;;;4955639;29;20035;-82
2022/07/14 03:33:26;;;;;;;1.45;1.00;;;;;;;;;;4955306;29;20046;-82
2022/07/14 03:35:52;;;;;;;1.77;1.00;;;;;;;;;;4954389;29;20496;-82
2022/07/14 03:38:18;;;;;;;2.75;1.00;;;;;;;;;;4954837;29;20042;-83
2022/07/14 03:40:47;;;;;;;1.20;1.00;;;;;;;;;;4938857;29;20576;-82
2022/07/14 03:43:13;;;;;;;1.30;1.10;;;;;;;;;;4954719;29;20039;-82
2022/07/14 03:45:39;;;;;;;2.17;1.00;;;;;;;;;;4954377;29;20412;-82
2022/07/14 03:48:07;;;;;;;1.20;1.08;;;;;;;;;;4939328;29;20409;-82
2022/07/14 03:50:36;;;;;;;3.90;1.08;;;;;;;;;;4954769;29;20042;-82
2022/07/14 03:53:03;;;;;;;2.17;1.08;;;;;;;;;;4938531;29;20032;-82
2022/07/14 03:55:29;;;;;;;1.33;1.00;;;;;;;;;;4938529;29;20036;-83
2022/07/14 03:57:55;;;;;;;1.08;0.93;;;;;;;;;;4953796;29;20086;-82
2022/07/14 04:00:20;;;;;;;1.60;0.90;;;;;;;;;;4954976;29;20040;-83
2022/07/14 04:02:48;;;;;;;1.73;0.95;;;;;;;;;;4938598;29;20032;-82
2022/07/14 04:05:22;;;;;;;1.83;1.00;;;;;;;;;;4954475;29;20032;-82
2022/07/14 04:07:48;;;;;;;3.35;1.10;;;;;;;;;;4954509;29;20048;-82
2022/07/14 04:10:15;;;;;;;2.42;1.15;;;;;;;;;;4938740;29;20547;-83
2022/07/14 04:12:42;;;;;;;1.73;1.10;;;;;;;;;;4938393;29;20035;-82
2022/07/14 04:15:09;;;;;;;1.20;1.10;;;;;;;;;;4938306;29;20489;-82
2022/07/14 04:17:34;;;;;;;2.78;1.20;;;;;;;;;;4937966;29;20515;-82
2022/07/14 04:20:01;;;;;;;1.38;0.90;;;;;;;;;;4954303;29;20032;-82
2022/07/14 04:22:29;;;;;;;4.03;1.00;;;;;;;;;;4954684;29;20090;-82
2022/07/14 04:24:55;;;;;;;1.42;1.00;;;;;;;;;;4937687;29;20509;-82
2022/07/14 04:27:20;;;;;;;1.60;1.00;;;;;;;;;;4954034;29;20027;-83
2022/07/14 04:29:47;;;;;;;2.00;1.52;;;;;;;;;;4953927;29;20028;-83
2022/07/14 04:32:12;;;;;;;4.45;1.10;;;;;;;;;;4937715;29;20071;-83
2022/07/14 04:34:39;;;;;;;1.60;1.10;;;;;;;;;;4952409;29;20031;-82
2022/07/14 04:37:05;;;;;;;2.33;1.20;;;;;;;;;;4937652;29;20032;-82
2022/07/14 04:39:31;;;;;;;2.17;1.40;;;;;;;;;;4937908;29;20032;-82
2022/07/14 04:41:56;;;;;;;1.50;1.40;;;;;;;;;;4953696;29;20050;-82
2022/07/14 04:44:22;;;;;;;5.50;1.20;;;;;;;;;;4938999;29;20036;-82
2022/07/14 04:46:48;;;;;;;1.75;1.02;;;;;;;;;;4937043;29;20035;-82
2022/07/14 04:52:01;;;;;;;4.85;1.10;;;;;;;;;;4953922;29;20036;-83
2022/07/14 04:54:33;;;;;;;1.48;1.00;;;;;;;;;;4953674;29;20118;-82
2022/07/14 04:57:19;;;;;;;1.42;1.08;;;;;;;;;;4938629;29;20050;-82
2022/07/14 04:59:46;;;;;;;3.67;1.00;;;;;;;;;;4937372;29;20040;-82
2022/07/14 05:02:13;;;;;;;2.83;1.10;;;;;;;;;;4937216;29;20496;-82
2022/07/14 05:04:39;;;;;;;3.35;1.00;;;;;;;;;;4952869;29;20059;-82
2022/07/14 05:07:06;;;;;;;1.33;0.90;;;;;;;;;;4937763;29;20054;-83
2022/07/14 05:09:33;;;;;;;1.20;1.00;;;;;;;;;;4937561;29;20171;-83
2022/07/14 05:12:03;;;;;;;2.90;1.10;;;;;;;;;;4952938;29;20055;-83
2022/07/14 05:14:30;;;;;;;2.38;1.55;;;;;;;;;;4937155;29;20134;-82
2022/07/14 05:16:56;;;;;;;2.42;1.42;;;;;;;;;;4938344;29;20059;-82
2022/07/14 05:19:23;;;;;;;3.53;1.08;;;;;;;;;;4937068;29;20055;-82
2022/07/14 05:21:49;;;;;;;1.15;0.90;;;;;;;;;;4921239;29;20039;-83
2022/07/14 05:24:15;;;;;;;1.40;1.17;;;;;;;;;;4953715;29;20039;-82
2022/07/14 05:26:42;;;;;;;1.88;1.17;;;;;;;;;;4938427;29;20059;-83
2022/07/14 05:29:07;;;;;;;3.65;1.15;;;;;;;;;;4953637;29;20096;-82
2022/07/14 05:31:33;;;;;;;1.75;1.10;;;;;;;;;;4937438;29;20046;-82
2022/07/14 05:34:00;;;;;;;3.08;1.20;;;;;;;;;;4937225;29;20042;-82
2022/07/14 05:36:26;;;;;;;2.90;1.20;;;;;;;;;;4937117;29;20032;-82
2022/07/14 05:38:52;;;;;;;3.63;1.00;;;;;;;;;;4953102;29;20673;-82
2022/07/14 05:41:19;;;;;;;1.40;1.08;;;;;;;;;;4953102;29;20039;-82
2022/07/14 05:43:46;;;;;;;8.20;1.20;;;;;;;;;;4937327;29;20129;-83
2022/07/14 05:46:13;;;;;;;1.63;1.20;;;;;;;;;;4956801;29;20057;-82
2022/07/14 05:48:40;;;;;;;1.30;1.00;;;;;;;;;;4940830;29;20083;-81
2022/07/14 05:51:10;;;;;;;3.85;1.10;;;;;;;;;;4941299;29;20036;-82
2022/07/14 05:53:36;;;;;;;1.10;1.00;;;;;;;;;;4925319;29;20501;-82
2022/07/14 05:56:04;;;;;;;1.20;1.00;;;;;;;;;;4956783;29;20059;-81
2022/07/14 05:58:30;;;;;;;4.60;1.10;;;;;;;;;;4941285;29;20560;-82
2022/07/14 06:00:55;;;;;;;1.63;1.20;;;;;;;;;;4940883;29;20039;-82
2022/07/14 06:03:21;;;;;;;1.55;1.08;;;;;;;;;;4956650;29;20079;-82
2022/07/14 06:05:47;;;;;;;2.45;1.05;;;;;;;;;;4940464;29;20090;-82
2022/07/14 06:08:13;;;;;;;4.05;1.20;;;;;;;;;;4940600;29;20127;-83
2022/07/14 06:10:38;;;;;;;2.30;1.27;;;;;;;;;;4956005;29;20035;-83
2022/07/14 06:13:05;;;;;;;6.57;1.10;;;;;;;;;;4940697;29;20042;-83
2022/07/14 06:15:31;;;;;;;1.75;1.20;;;;;;;;;;4955677;29;20099;-82
2022/07/14 06:17:56;;;;;;;3.70;1.20;;;;;;;;;;4956285;29;20032;-82
2022/07/14 06:20:23;;;;;;;4.57;1.50;;;;;;;;;;4940975;29;20035;-83
2022/07/14 06:22:50;;;;;;;2.85;1.20;;;;;;;;;;4941084;29;20035;-83
2022/07/14 06:25:16;;;;;;;2.17;1.30;;;;;;;;;;4924650;29;20123;-83
2022/07/14 06:27:43;;;;;;;1.67;1.13;;;;;;;;;;4940696;29;20115;-83
2022/07/14 06:30:10;;;;;;;1.75;1.23;;;;;;;;;;4956882;29;20560;-83
2022/07/14 06:32:40;;;;;;;4.07;1.38;;;;;;;;;;4940908;29;20135;-83
2022/07/14 06:35:08;;;;;;;3.63;1.60;;;;;;;;;;4940728;29;20123;-84
2022/07/14 06:37:35;;;;;;;2.10;1.10;;;;;;;;;;4955989;29;20182;-82
2022/07/14 06:40:04;;;;;;;5.35;1.10;;;;;;;;;;4939956;29;20524;-83
2022/07/14 06:42:29;;;;;;;6.38;1.10;;;;;;;;;;4940959;29;20048;-83
2022/07/14 06:45:12;;;;;;;1.65;1.00;;;;;;;;;;4955866;29;20039;-83
2022/07/14 06:47:38;;;;;;;1.83;1.20;;;;;;;;;;4955307;29;20032;-83
2022/07/14 06:50:05;;;;;;;1.30;1.10;;;;;;;;;;4955537;29;20067;-83
2022/07/14 06:52:31;;;;;;;4.63;1.27;;;;;;;;;;4940321;29;20479;-82
2022/07/14 06:55:00;;;;;;;2.30;1.10;;;;;;;;;;4939832;29;20043;-83
2022/07/14 06:57:26;;;;;;;1.40;1.05;;;;;;;;;;4940914;29;20039;-83
2022/07/14 06:59:53;;;;;;;2.67;1.20;;;;;;;;;;4941835;29;20048;-83
2022/07/14 07:02:19;;;;;;;3.20;1.25;;;;;;;;;;4955796;29;20032;-83
2022/07/14 07:04:47;;;;;;;3.78;1.40;;;;;;;;;;4941966;29;20104;-84
2022/07/14 07:07:12;;;;;;;1.63;1.10;;;;;;;;;;4956544;29;20040;-82
2022/07/14 07:09:38;;;;;;;3.88;1.10;;;;;;;;;;4942574;29;20035;-83
2022/07/14 07:12:04;;;;;;;1.48;1.00;;;;;;;;;;4943160;29;20412;-83
2022/07/14 07:14:30;;;;;;;2.72;1.20;;;;;;;;;;4956745;29;20083;-83
2022/07/14 07:16:56;;;;;;;1.65;1.33;;;;;;;;;;4939925;29;20063;-83
2022/07/14 07:19:21;;;;;;;4.40;1.30;;;;;;;;;;4940776;29;20035;-83
2022/07/14 07:21:47;;;;;;;3.28;1.25;;;;;;;;;;4941157;29;20036;-83
2022/07/14 07:24:12;;;;;;;2.20;1.10;;;;;;;;;;4955762;29;20039;-82
2022/07/14 07:26:40;;;;;;;1.30;1.05;;;;;;;;;;4941918;29;20039;-83
2022/07/14 07:29:06;;;;;;;1.83;1.30;;;;;;;;;;4940374;29;20059;-83
2022/07/14 07:31:33;;;;;;;1.55;1.00;;;;;;;;;;4940974;29;20043;-83
2022/07/14 07:33:59;;;;;;;1.95;1.23;;;;;;;;;;4940616;29;20075;-82
2022/07/14 07:36:24;;;;;;;2.33;1.10;;;;;;;;;;4941078;29;20039;-83
2022/07/14 07:38:51;;;;;;;3.60;1.30;;;;;;;;;;4941414;29;20628;-84
2022/07/14 07:41:16;;;;;;;1.98;1.40;;;;;;;;;;4940684;29;20067;-83
2022/07/14 07:43:42;;;;;;;1.33;1.20;;;;;;;;;;4956185;29;20039;-84
2022/07/14 07:46:08;;;;;;;1.35;1.15;;;;;;;;;;4940816;29;20027;-84
2022/07/14 07:48:34;;;;;;;4.05;1.10;;;;;;;;;;4940855;29;20500;-83
2022/07/14 07:50:59;;;;;;;3.40;1.20;;;;;;;;;;4940522;29;20055;-84
2022/07/14 07:53:25;;;;;;;2.80;1.10;;;;;;;;;;4942135;29;20040;-85
2022/07/14 07:55:54;;;;;;;2.22;1.20;;;;;;;;;;4940391;29;20044;-84
2022/07/14 07:58:20;;;;;;;1.50;1.20;;;;;;;;;;4941360;29;20070;-84
2022/07/14 08:00:47;;;;;;;4.28;1.10;;;;;;;;;;4940723;29;20032;-84
2022/07/14 08:03:13;;;;;;;2.47;1.08;;;;;;;;;;4940808;29;20111;-84
2022/07/14 08:05:40;;;;;;;4.70;1.10;;;;;;;;;;4954901;29;20032;-85
2022/07/14 08:08:07;;;;;;;4.65;1.10;;;;;;;;;;4940110;28;20032;-85
2022/07/14 08:10:33;;;;;;;2.90;1.10;;;;;;;;;;4939215;29;20047;-83
2022/07/14 08:12:58;;;;;;;1.42;1.05;;;;;;;;;;4939166;29;20042;-83
2022/07/14 08:15:24;;;;;;;3.75;1.38;;;;;;;;;;4939505;29;20040;-83
2022/07/14 08:17:50;;;;;;;2.30;1.30;;;;;;;;;;4955525;29;20040;-83
2022/07/14 08:20:15;;;;;;;1.25;1.10;;;;;;;;;;4941860;29;20047;-84
2022/07/14 08:22:41;;;;;;;3.25;1.10;;;;;;;;;;4942336;29;20040;-84
2022/07/14 08:25:08;;;;;;;3.00;1.23;;;;;;;;;;4941745;29;20035;-84
2022/07/14 08:27:34;;;;;;;4.28;1.30;;;;;;;;;;4942244;29;20036;-84
2022/07/14 08:30:01;;;;;;;2.70;1.20;;;;;;;;;;4942206;29;20543;-84
2022/07/14 08:32:44;;;;;;;4.22;1.35;;;;;;;;;;4940686;29;20493;-86
2022/07/14 08:35:11;;;;;;;;;;;;;;;;;;4942902;29;20063;-84
2022/07/14 08:37:37;;;;;;;5.85;1.50;;;;;;;;;;4942629;29;19915;-84
2022/07/14 08:40:05;;;;;;;3.45;1.30;;;;;;;;;;4941631;29;20401;-84
2022/07/14 08:42:32;;;;;;;2.15;1.30;;;;;;;;;;4955992;29;20035;-84
2022/07/14 08:44:58;;;;;;;1.52;1.30;;;;;;;;;;4941727;29;20540;-84
2022/07/14 08:47:25;;;;;;;1.88;1.35;;;;;;;;;;4941682;29;20035;-84
2022/07/14 08:49:51;;;;;;;3.75;1.27;;;;;;;;;;4941697;29;20042;-85
2022/07/14 08:52:20;;;;;;;1.55;1.10;;;;;;;;;;4941818;29;20035;-85
2022/07/14 08:54:46;;;;;;;2.35;1.30;;;;;;;;;;4941565;29;20071;-85
2022/07/14 08:57:13;;;;;;;3.28;1.40;;;;;;;;;;4942289;29;20095;-85
2022/07/14 08:59:40;;;;;;;1.10;1.00;;;;;;;;;;4940100;29;20035;-85
2022/07/14 09:02:06;;;;;;;3.58;1.30;;;;;;;;;;4942271;29;20024;-85
2022/07/14 09:04:31;;;;;;;2.15;1.25;;;;;;;;;;4942025;29;20090;-85
2022/07/14 09:06:57;;;;;;;2.88;1.10;;;;;;;;;;4956425;29;20032;-85
2022/07/14 09:09:29;;;;;;;2.25;1.20;;;;;;;;;;4941787;29;20040;-85
2022/07/14 09:12:07;;;;;;;1.20;1.02;;;;;;;;;;4941493;29;20031;-85
2022/07/14 09:17:27;;;;;;;2.08;1.20;;;;;;;;;;4941631;29;20046;-85
2022/07/14 09:20:10;;;;;;;3.65;1.30;;;;;;;;;;4940826;29;20031;-85
2022/07/14 09:22:41;;;;;;;2.17;1.30;;;;;;;;;;4941898;29;20036;-85
2022/07/14 09:25:17;;;;;;;1.83;1.13;;;;;;;;;;4941084;29;20043;-85
2022/07/14 09:27:47;;;;;;;5.15;1.15;;;;;;;;;;4941694;29;20046;-85
2022/07/14 09:30:14;;;;;;;6.45;1.27;;;;;;;;;;4941923;29;20044;-85
2022/07/14 09:32:59;;;;;;;2.30;1.20;;;;;;;;;;4941944;29;20044;-85
2022/07/14 09:35:47;;;;;;;1.67;1.20;;;;;;;;;;4941550;29;20035;-85
2022/07/14 09:38:17;;;;;;;6.35;1.20;;;;;;;;;;4940874;29;20047;-85
2022/07/14 09:40:43;;;;;;;1.60;1.10;;;;;;;;;;4941370;29;20082;-85
2022/07/14 09:43:12;;;;;;;2.45;1.10;;;;;;;;;;4941852;29;20107;-85
2022/07/14 09:45:41;;;;;;;5.40;1.20;;;;;;;;;;4941447;29;20043;-85
2022/07/14 09:48:08;;;;;;;1.42;1.17;;;;;;;;;;4956228;29;20374;-85
2022/07/14 09:50:48;;;;;;;2.83;1.13;;;;;;;;;;4940863;29;20035;-85
2022/07/14 09:53:24;;;;;;;1.77;1.15;;;;;;;;;;4941095;29;20039;-85
2022/07/14 09:55:52;;;;;;;2.55;1.10;;;;;;;;;;4939759;29;20445;-85
2022/07/14 09:58:18;;;;;;;3.65;1.30;;;;;;;;;;4941801;29;20516;-85
2022/07/14 10:00:54;;;;;;;2.25;1.17;;;;;;;;;;4941167;29;20066;-85
2022/07/14 10:03:20;;;;;;;3.67;1.30;;;;;;;;;;4941345;29;20039;-85
2022/07/14 10:05:46;;;;;;;1.30;1.20;;;;;;;;;;4941322;29;20030;-85
2022/07/14 10:08:12;;;;;;;2.15;1.08;;;;;;;;;;4941410;29;20036;-86
2022/07/14 10:10:38;;;;;;;3.05;1.10;;;;;;;;;;4940715;29;20063;-86
2022/07/14 10:13:05;;;;;;;1.55;1.15;;;;;;;;;;4941254;29;20032;-85
2022/07/14 10:15:31;;;;;;;2.35;1.10;;;;;;;;;;4941106;29;20047;-86
2022/07/14 10:18:00;;;;;;;5.85;1.15;;;;;;;;;;4941860;29;20020;-85
2022/07/14 10:20:27;;;;;;;1.98;1.10;;;;;;;;;;4941511;29;20035;-85
2022/07/14 10:22:55;;;;;;;1.88;1.17;;;;;;;;;;4941493;29;20031;-86
2022/07/14 10:25:21;;;;;;;3.00;1.10;;;;;;;;;;4941446;29;20051;-84
2022/07/14 10:27:48;;;;;;;4.15;0.90;;;;;;;;;;4941230;29;20079;-84
2022/07/14 10:30:15;;;;;;;1.58;1.02;;;;;;;;;;4941319;29;20122;-84
2022/07/14 10:33:02;;;;;;;2.35;1.10;;;;;;;;;;4960044;29;20038;-84
2022/07/14 10:35:40;;;;;;;2.60;1.10;;;;;;;;;;4944588;29;20117;-84
2022/07/14 10:38:39;;;;;;;3.20;1.08;;;;;;;;;;4944621;29;20086;-84
2022/07/14 10:41:44;;;;;;;2.10;1.10;;;;;;;;;;4945228;29;20043;-84
2022/07/14 10:44:23;;;;;;;2.75;1.13;;;;;;;;;;4940820;29;20051;-84
2022/07/14 10:46:52;;;;;;;3.58;1.10;;;;;;;;;;4944409;29;20094;-85
2022/07/14 10:49:18;;;;;;;3.17;1.00;;;;;;;;;;4943379;29;20313;-84
2022/07/14 10:51:49;;;;;;;2.42;1.10;;;;;;;;;;4959641;29;20036;-84
2022/07/14 10:54:16;;;;;;;3.78;1.15;;;;;;;;;;4944128;29;20236;-84
2022/07/14 10:56:44;;;;;;;1.27;1.00;;;;;;;;;;4944321;29;20067;-84
2022/07/14 10:59:25;;;;;;;3.83;1.10;;;;;;;;;;4943510;29;20440;-84
2022/07/14 11:02:12;;;;;;;2.78;1.00;;;;;;;;;;4945395;29;20547;-84
2022/07/14 11:04:56;;;;;;;4.28;1.10;;;;;;;;;;4944152;29;20043;-84
2022/07/14 11:07:40;;;;;;;1.77;1.20;;;;;;;;;;4944766;29;20115;-84
2022/07/14 11:10:21;;;;;;;2.50;1.15;;;;;;;;;;4944840;29;20086;-85
2022/07/14 11:13:04;;;;;;;2.58;1.10;;;;;;;;;;4944597;29;20053;-84
2022/07/14 11:15:37;;;;;;;1.98;1.20;;;;;;;;;;4959672;29;20095;-84
2022/07/14 11:18:27;;;;;;;3.13;1.30;;;;;;;;;;4944368;29;20043;-85
2022/07/14 11:21:07;;;;;;;2.50;1.10;;;;;;;;;;4938354;29;20043;-85
2022/07/14 11:23:50;;;;;;;1.98;1.10;;;;;;;;;;4943985;29;20067;-85
2022/07/14 11:26:41;;;;;;;1.30;1.00;;;;;;;;;;4942715;29;20039;-84
2022/07/14 11:29:08;;;;;;;4.68;1.10;;;;;;;;;;4945096;29;20039;-84
2022/07/14 11:31:53;;;;;;;2.88;1.20;;;;;;;;;;4944706;29;20040;-84
2022/07/14 11:37:12;;;;;;;4.75;1.00;;;;;;;;;;4944120;29;20456;-84
2022/07/14 11:39:40;;;;;;;2.53;0.93;;;;;;;;;;4958604;29;20062;-85
2022/07/14 11:42:08;;;;;;;2.25;1.10;;;;;;;;;;4943534;29;20313;-85
2022/07/14 11:44:40;;;;;;;2.25;1.00;;;;;;;;;;4943258;29;20039;-84
2022/07/14 11:47:05;;;;;;;3.67;0.93;;;;;;;;;;4958607;29;20038;-85
2022/07/14 11:49:32;;;;;;;3.05;1.00;;;;;;;;;;4943935;29;20027;-85
2022/07/14 11:51:58;;;;;;;2.38;1.23;;;;;;;;;;4943802;29;20126;-85
2022/07/14 11:54:25;;;;;;;2.67;1.17;;;;;;;;;;4944185;29;20390;-84
2022/07/14 11:57:06;;;;;;;2.13;1.10;;;;;;;;;;4958526;29;20075;-85
2022/07/14 11:59:42;;;;;;;2.67;1.00;;;;;;;;;;4943555;29;20051;-85
2022/07/14 12:02:17;;;;;;;2.22;1.10;;;;;;;;;;4945207;29;20050;-85
2022/07/14 12:04:58;;;;;;;2.90;1.10;;;;;;;;;;4946491;29;20036;-85
2022/07/14 12:07:43;;;;;;;2.08;1.08;;;;;;;;;;4960116;29;20114;-85
2022/07/14 12:10:10;;;;;;;2.80;1.10;;;;;;;;;;4958828;29;20040;-86
2022/07/14 12:12:41;;;;;;;1.65;0.98;;;;;;;;;;4945035;29;20038;-84
2022/07/14 12:15:08;;;;;;;1.48;1.00;;;;;;;;;;4943740;29;20067;-84
2022/07/14 12:17:45;;;;;;;1.02;0.90;;;;;;;;;;4959209;29;20024;-85
2022/07/14 12:20:11;;;;;;;3.30;1.10;;;;;;;;;;4941953;29;20043;-85
2022/07/14 12:22:45;;;;;;;5.82;1.00;;;;;;;;;;4943104;29;20029;-85
2022/07/14 12:25:29;;;;;;;1.45;0.98;;;;;;;;;;4943665;29;20043;-85
2022/07/14 12:27:55;;;;;;;2.53;1.10;;;;;;;;;;4944421;29;20038;-85
2022/07/14 12:30:21;;;;;;;1.33;1.00;;;;;;;;;;4943819;29;20028;-85
2022/07/14 12:32:52;;;;;;;2.63;0.95;;;;;;;;;;4942216;29;20046;-85
2022/07/14 12:35:20;;;;;;;1.98;1.05;;;;;;;;;;4944602;29;20123;-85
2022/07/14 12:37:46;;;;;;;1.05;0.90;;;;;;;;;;4944177;29;20048;-85
2022/07/14 12:40:12;;;;;;;1.60;1.00;;;;;;;;;;4945197;29;20083;-85
2022/07/14 12:42:37;;;;;;;2.40;0.90;;;;;;;;;;4942793;29;20126;-85
2022/07/14 12:45:07;;;;;;;2.53;1.00;;;;;;;;;;4942839;29;20042;-87
2022/07/14 12:47:50;;;;;;;1.70;1.00;;;;;;;;;;4942451;29;20031;-86
2022/07/14 12:50:21;;;;;;;1.27;1.10;;;;;;;;;;4942523;29;20043;-86
2022/07/14 12:52:55;;;;;;;4.05;1.00;;;;;;;;;;4943146;29;20381;-86
2022/07/14 12:55:57;;;;;;;1.60;1.10;;;;;;;;;;4940759;29;20403;-86
2022/07/14 12:58:26;;;;;;;1.08;0.90;;;;;;;;;;4940158;29;20051;-86
2022/07/14 13:00:52;;;;;;;2.20;0.90;;;;;;;;;;4942032;29;20036;-86
2022/07/14 13:03:19;;;;;;;2.05;1.00;;;;;;;;;;4942576;29;20042;-86
2022/07/14 13:05:54;;;;;;;2.88;1.05;;;;;;;;;;4941548;29;20032;-86
2022/07/14 13:08:35;;;;;;;1.77;0.90;;;;;;;;;;4941755;29;20123;-85
2022/07/14 13:11:03;;;;;;;2.38;0.95;;;;;;;;;;4942793;29;20130;-86
2022/07/14 13:13:33;;;;;;;2.78;1.00;;;;;;;;;;4941841;29;20040;-86
2022/07/14 13:16:20;;;;;;;1.20;1.10;;;;;;;;;;4956654;29;20040;-86
2022/07/14 13:19:13;;;;;;;1.65;1.00;;;;;;;;;;4942746;29;20051;-86
2022/07/14 13:22:07;;;;;;;1.20;0.90;;;;;;;;;;4957293;29;20489;-86
2022/07/14 13:24:35;;;;;;;1.92;1.00;;;;;;;;;;4942618;29;20040;-86
2022/07/14 13:27:12;;;;;;;1.30;0.90;;;;;;;;;;4942269;29;20042;-86
2022/07/14 13:29:40;;;;;;;1.50;1.00;;;;;;;;;;4943420;29;20067;-87
2022/07/14 13:32:07;;;;;;;2.08;0.93;;;;;;;;;;4941012;29;20039;-87
2022/07/14 13:34:34;;;;;;;5.78;1.17;;;;;;;;;;4940650;29;20035;-87
2022/07/14 13:37:00;;;;;;;3.20;0.95;;;;;;;;;;4942289;29;20044;-86
2022/07/14 13:39:27;;;;;;;1.30;0.90;;;;;;;;;;4945251;29;20032;-85
2022/07/14 13:41:53;;;;;;;1.80;1.10;;;;;;;;;;4954369;29;20495;-85
2022/07/14 13:44:19;;;;;;;1.58;1.00;;;;;;;;;;4952689;29;20027;-86
2022/07/14 13:46:46;;;;;;;3.45;0.90;;;;;;;;;;4968369;29;20032;-85
2022/07/14 13:49:12;;;;;;;3.05;1.00;;;;;;;;;;4951795;29;20039;-86
2022/07/14 13:54:22;;;;;;;3.88;1.00;;;;;;;;;;4943952;29;20032;-87
2022/07/14 13:56:48;;;;;;;2.88;1.10;;;;;;;;;;4941575;29;20566;-86
2022/07/14 13:59:13;;;;;;;1.30;1.10;;;;;;;;;;4942188;29;20047;-87
2022/07/14 14:01:39;;;;;;;3.28;1.05;;;;;;;;;;4941292;29;20497;-87
2022/07/14 14:04:05;;;;;;;1.30;1.00;;;;;;;;;;4942390;29;20114;-86
2022/07/14 14:06:31;;;;;;;2.03;1.20;;;;;;;;;;4944052;29;20040;-86
2022/07/14 14:08:57;;;;;;;4.10;1.00;;;;;;;;;;4945681;29;20477;-88
2022/07/14 14:11:23;;;;;;;2.55;1.10;;;;;;;;;;4945771;29;20036;-87
2022/07/14 14:13:49;;;;;;;1.90;1.00;;;;;;;;;;4945575;29;20054;-87
2022/07/14 14:16:14;;;;;;;2.50;1.20;;;;;;;;;;4945862;29;20044;-87
2022/07/14 14:18:40;;;;;;;2.00;1.10;;;;;;;;;;4945268;29;20075;-87
2022/07/14 14:21:07;;;;;;;3.65;1.02;;;;;;;;;;4945835;29;20043;-87
2022/07/14 14:23:34;;;;;;;1.98;1.10;;;;;;;;;;4945428;29;20031;-87
2022/07/14 14:26:02;;;;;;;3.33;1.05;;;;;;;;;;4944266;29;20095;-86
2022/07/14 14:28:28;;;;;;;1.20;1.10;;;;;;;;;;4945668;29;20043;-88
2022/07/14 14:30:54;;;;;;;1.73;1.00;;;;;;;;;;4945237;29;20047;-87
2022/07/14 14:33:20;;;;;;;3.53;1.00;;;;;;;;;;4960499;29;20071;-89
2022/07/14 14:35:45;;;;;;;1.88;1.00;;;;;;;;;;4944973;29;20099;-87
2022/07/14 14:38:11;;;;;;;1.63;1.10;;;;;;;;;;4961644;29;20428;-88
2022/07/14 14:40:39;;;;;;;2.03;1.02;;;;;;;;;;4959961;29;20122;-89
2022/07/14 14:43:06;;;;;;;1.20;1.05;;;;;;;;;;4941752;29;20412;-88
2022/07/14 14:45:34;;;;;;;3.20;1.23;;;;;;;;;;4945886;29;20040;-88
2022/07/14 14:47:59;;;;;;;4.13;1.20;;;;;;;;;;4942370;29;20477;-87
2022/07/14 14:50:25;;;;;;;1.33;0.90;;;;;;;;;;4962101;29;20050;-87
2022/07/14 14:52:51;;;;;;;1.17;1.00;;;;;;;;;;4943611;29;20039;-88
2022/07/14 14:55:20;;;;;;;6.50;1.00;;;;;;;;;;4946985;29;20036;-86
2022/07/14 14:57:46;;;;;;;3.13;0.90;;;;;;;;;;4959761;29;20067;-88
2022/07/14 15:00:12;;;;;;;2.42;1.23;;;;;;;;;;4947843;29;20132;-87
2022/07/14 15:02:38;;;;;;;1.77;1.00;;;;;;;;;;4947206;29;20091;-87
2022/07/14 15:05:05;;;;;;;2.30;1.08;;;;;;;;;;4948818;29;20034;-88
2022/07/14 15:07:30;;;;;;;2.05;1.00;;;;;;;;;;4947498;29;20032;-87